Valdosta, GA

4:34 PM EDT on July 06, 2015 (GMT -0400)
Audio Video and Security Inc. | | Change Station
CLOSE
Current Station
Personal Weather Station
Location: Valdosta, GA
Elevation: 220 ft
Nearby Weather Stations

Elev 220 ft 30.81 °N, 83.32 °W | Updated 33 seconds ago

Mostly Cloudy
Mostly Cloudy
89.1 °F
Feels Like 91 °F
N
5.4
Wind Variable Wind from ESE
Gusts 8.3 mph

Today
High -- | Low -- °F
--% Chance of Precip.
Yesterday
High -- | Low -- °F
Precip. -- in
6:35 AM 8:39 PM
Waning Gibbous, 72% visible
Pressure 30.15 in
Visibility 10.0 miles
Clouds Mostly Cloudy 5500 ft
Heat Index 91 °F
Dew Point 66 °F
Humidity 46%
Rainfall 0.01 in
Snow Depth Not available.
UV 6 out of 12
Pollen 2.70 out of 12
Air Quality Not available.
Flu Activity Not available.
METAR KVLD 061953Z 00000KT 10SM BKN055 31/21 A3013 RMK AO2 SLP210 T03110211

More Conditions Fewer Conditions

Pressure 30.15 in
Visibility 10.0 miles
Clouds Mostly Cloudy 5500 ft
Heat Index 91 °F
Dew Point 66 °F
Humidity 46%
Rainfall 0.01 in
Snow Depth Not available.
UV 6 out of 12
Pollen 2.70 out of 12
Air Quality Not available.
Flu Activity Not available.
METAR KVLD 061953Z 00000KT 10SM BKN055 31/21 A3013 RMK AO2 SLP210 T03110211

More Conditions Fewer Conditions

10-Day Weather Forecast

×

Almanac

Astronomy

Jul. 06, 2015 Rise Set
Actual Time
Civil Twilight
Nautical Twilight
Astronomical Twilight
Moon
Length of Visible Light
Length of Day
Tomorrow will be .
, % of the Moon is Illuminated

Today's Extremes

State Highs State Lows

Community

WunderPhotos

Upload Photos

1,835,638 photos uploaded!

WunderBlogs® & News

Nearby

Air Quality

  Air Quality AQ Index Pollutant
Not available.

Snow Depth

Station Depth Elevation

Earthquake Activity

City Distance Mag. Time & Date
Minimum magnitude displayed is 2.5.

Coastal Water Temperatures

Place Temperature

Stations

Nearby Weather Stations

Station Location Temp. Windchill Dew Point Humidity Wind Precip. Elev Updated Type